Terminal Aerodrome Forecast
Issued by NWS

Home | Current Version | Previous Version | Text Only | Print | Product List | Glossary On
Versions: 1 2 3 4 5 6 7 8 9 10 11 12
000
FTUS44 KOHX 062300
TAFCKV
TAF
KCKV 062320Z 0700/0724 15004KT P6SM FEW070
      TEMPO 0711/0713 5SM BR
     FM071400 18006KT P6SM FEW060=

USA.gov is the U.S. government's official web portal to all federal, state and local government web resources and services.